createdAt,value
2024-04-26T00:00:05.148Z,38.79
2024-04-26T00:00:17.794Z,38.86
2024-04-26T00:00:25.175Z,38.87
2024-04-26T00:00:35.150Z,38.90
2024-04-26T00:00:45.171Z,38.86
2024-04-26T00:00:55.266Z,38.81
2024-04-26T00:01:15.248Z,38.82
2024-04-26T00:01:25.149Z,38.86
2024-04-26T00:01:35.261Z,38.87
2024-04-26T00:01:45.132Z,38.89
2024-04-26T00:01:55.161Z,38.87
2024-04-26T00:02:05.120Z,38.87
2024-04-26T00:02:25.150Z,38.89
2024-04-26T00:02:35.271Z,38.83
2024-04-26T00:02:45.204Z,38.79
2024-04-26T00:02:55.289Z,38.87
2024-04-26T00:03:05.238Z,38.87
2024-04-26T00:03:15.310Z,38.87
2024-04-26T00:03:25.298Z,38.83
2024-04-26T00:03:35.281Z,38.83
2024-04-26T00:03:45.147Z,38.91
2024-04-26T00:03:55.202Z,38.87
2024-04-26T00:04:15.200Z,39.04
2024-04-26T00:04:25.139Z,38.93
2024-04-26T00:04:35.217Z,38.95
2024-04-26T00:04:45.137Z,39.01
2024-04-26T00:04:55.343Z,38.94
2024-04-26T00:05:05.136Z,38.91
2024-04-26T00:05:25.159Z,38.90
2024-04-26T00:05:35.183Z,38.84
2024-04-26T00:05:45.144Z,38.84
2024-04-26T00:05:55.257Z,38.83
2024-04-26T00:06:15.109Z,38.93
2024-04-26T00:06:35.128Z,38.93
2024-04-26T00:06:45.124Z,38.93
2024-04-26T00:06:55.111Z,38.87
2024-04-26T00:07:05.117Z,38.90
2024-04-26T00:07:15.120Z,38.90
2024-04-26T00:07:25.243Z,38.88
2024-04-26T00:07:45.114Z,38.93
2024-04-26T00:07:55.111Z,38.88
2024-04-26T00:08:05.379Z,38.89
2024-04-26T00:08:15.139Z,38.87
2024-04-26T00:08:25.118Z,38.82
2024-04-26T00:08:55.176Z,38.82
2024-04-26T00:09:05.098Z,38.84
2024-04-26T00:09:15.116Z,38.91
2024-04-26T00:09:25.098Z,38.89
2024-04-26T00:09:35.161Z,38.81
2024-04-26T00:09:45.100Z,38.83
2024-04-26T00:09:55.102Z,38.80
2024-04-26T00:10:15.106Z,38.88
2024-04-26T00:10:25.089Z,38.86
2024-04-26T00:10:35.182Z,38.82
2024-04-26T00:10:45.150Z,38.80
2024-04-26T00:10:55.095Z,38.84
2024-04-26T00:11:25.121Z,38.83
2024-04-26T00:11:35.178Z,38.88
2024-04-26T00:11:45.152Z,38.89
2024-04-26T00:11:55.253Z,38.89
2024-04-26T00:12:05.233Z,38.88
2024-04-26T00:12:15.230Z,38.86
2024-04-26T00:12:25.129Z,38.86
2024-04-26T00:12:35.118Z,38.83
2024-04-26T00:12:55.082Z,38.82
2024-04-26T00:13:05.095Z,38.79
2024-04-26T00:13:15.079Z,38.79
2024-04-26T00:13:25.081Z,38.80
2024-04-26T00:13:45.092Z,38.78
2024-04-26T00:14:05.098Z,38.87
2024-04-26T00:14:15.072Z,38.85
2024-04-26T00:14:25.113Z,38.91
2024-04-26T00:14:35.121Z,39.00
2024-04-26T00:14:45.187Z,38.99
2024-04-26T00:14:55.095Z,38.96
2024-04-26T00:15:05.156Z,38.94
2024-04-26T00:15:25.083Z,38.91
2024-04-26T00:15:35.076Z,38.89
2024-04-26T00:15:45.074Z,38.92
2024-04-26T00:15:55.123Z,38.95
2024-04-26T00:16:15.085Z,38.98
2024-04-26T00:16:35.239Z,38.92
2024-04-26T00:16:45.136Z,38.87
2024-04-26T00:16:55.179Z,38.88
2024-04-26T00:17:05.085Z,38.84
2024-04-26T00:17:15.059Z,38.88
2024-04-26T00:17:25.137Z,38.90
2024-04-26T00:17:35.123Z,38.91
2024-04-26T00:17:55.231Z,38.95
2024-04-26T00:18:05.540Z,38.99
2024-04-26T00:18:15.461Z,38.91
2024-04-26T00:18:25.104Z,38.92
2024-04-26T00:18:35.071Z,38.93
2024-04-26T00:19:05.054Z,38.93
2024-04-26T00:19:15.056Z,38.93
2024-04-26T00:19:25.061Z,38.89
2024-04-26T00:19:36.166Z,38.95
2024-04-26T00:19:45.058Z,38.99
2024-04-26T00:19:55.053Z,38.99
2024-04-26T00:20:05.070Z,38.97
2024-04-26T00:20:25.096Z,38.92
2024-04-26T00:20:35.048Z,38.89
2024-04-26T00:20:45.070Z,38.92
2024-04-26T00:20:55.099Z,38.92
2024-04-26T00:21:05.108Z,38.91
2024-04-26T00:21:25.318Z,38.91
2024-04-26T00:21:45.058Z,38.93
2024-04-26T00:21:55.039Z,38.89
2024-04-26T00:22:05.060Z,38.92
2024-04-26T00:22:15.058Z,38.92
2024-04-26T00:22:25.042Z,38.91
2024-04-26T00:22:35.067Z,38.89
2024-04-26T00:22:55.032Z,38.96
2024-04-26T00:23:05.049Z,38.98
2024-04-26T00:23:15.078Z,38.93
2024-04-26T00:23:25.061Z,38.95
2024-04-26T00:23:35.087Z,38.95
2024-04-26T00:23:55.072Z,38.87
2024-04-26T00:24:05.084Z,38.98
2024-04-26T00:24:25.051Z,38.95
2024-04-26T00:24:35.044Z,38.91
2024-04-26T00:24:45.052Z,38.96
2024-04-26T00:24:55.032Z,38.91
2024-04-26T00:25:05.034Z,38.93
2024-04-26T00:25:15.049Z,38.93
2024-04-26T00:25:35.032Z,38.95
2024-04-26T00:25:45.039Z,38.93
2024-04-26T00:25:55.043Z,38.99
2024-04-26T00:26:05.072Z,38.92
2024-04-26T00:26:15.061Z,38.88
2024-04-26T00:26:45.136Z,38.93
2024-04-26T00:26:55.043Z,38.93
2024-04-26T00:27:05.086Z,39.03
2024-04-26T00:27:15.116Z,38.96
2024-04-26T00:27:25.032Z,38.97
2024-04-26T00:27:35.044Z,38.91
2024-04-26T00:27:45.335Z,38.90
2024-04-26T00:27:55.039Z,38.95
2024-04-26T00:28:15.070Z,38.88
2024-04-26T00:28:25.015Z,38.89
2024-04-26T00:28:35.014Z,38.93
2024-04-26T00:28:55.022Z,39.04
2024-04-26T00:29:05.027Z,39.03
2024-04-26T00:29:15.023Z,39.05
2024-04-26T00:29:35.066Z,39.00
2024-04-26T00:29:45.051Z,38.97
2024-04-26T00:29:55.086Z,39.03
2024-04-26T00:30:05.053Z,39.04
2024-04-26T00:30:15.023Z,39.07
2024-04-26T00:30:25.015Z,39.06
2024-04-26T00:30:45.019Z,39.11
2024-04-26T00:30:55.016Z,39.08
2024-04-26T00:31:05.014Z,39.08
2024-04-26T00:31:25.040Z,39.04
2024-04-26T00:31:35.025Z,38.98
2024-04-26T00:31:55.040Z,38.92
2024-04-26T00:32:05.042Z,38.96
2024-04-26T00:32:15.037Z,38.93
2024-04-26T00:32:25.137Z,38.93
2024-04-26T00:32:35.089Z,38.97
2024-04-26T00:32:45.254Z,38.98
2024-04-26T00:33:05.148Z,39.08
2024-04-26T00:33:15.140Z,38.99
2024-04-26T00:33:25.170Z,39.04
2024-04-26T00:33:35.084Z,39.04
2024-04-26T00:33:45.100Z,39.06
2024-04-26T00:34:05.027Z,39.01
2024-04-26T00:34:25.016Z,39.06
2024-04-26T00:34:34.992Z,39.09
2024-04-26T00:34:44.997Z,39.12
2024-04-26T00:34:54.996Z,39.09
2024-04-26T00:35:04.994Z,39.13
2024-04-26T00:35:15.001Z,39.08
2024-04-26T00:35:35.094Z,39.13
2024-04-26T00:35:45.030Z,39.16
2024-04-26T00:35:55.148Z,39.16
2024-04-26T00:36:05.070Z,39.13
2024-04-26T00:36:25.002Z,39.12
2024-04-26T00:36:35.928Z,39.15
2024-04-26T00:36:45.006Z,39.11
2024-04-26T00:37:04.993Z,39.17
2024-04-26T00:37:14.985Z,39.19
2024-04-26T00:37:24.999Z,39.06
2024-04-26T00:37:35.005Z,39.08
2024-04-26T00:37:44.991Z,39.05
2024-04-26T00:37:55.023Z,39.04
2024-04-26T00:38:05.289Z,39.01
2024-04-26T00:38:15.041Z,39.04
2024-04-26T00:38:35.025Z,39.06
2024-04-26T00:38:55.004Z,39.06
2024-04-26T00:39:05.032Z,39.09
2024-04-26T00:39:14.969Z,39.09
2024-04-26T00:39:24.992Z,39.13
2024-04-26T00:39:35.026Z,39.08
2024-04-26T00:39:44.978Z,39.06
2024-04-26T00:40:04.978Z,39.03
2024-04-26T00:40:14.979Z,39.01
2024-04-26T00:40:24.992Z,39.04
2024-04-26T00:40:34.974Z,39.02
2024-04-26T00:40:45.015Z,39.01
2024-04-26T00:40:54.984Z,39.04
2024-04-26T00:41:04.984Z,39.04
2024-04-26T00:41:14.980Z,39.08
2024-04-26T00:41:35.032Z,39.13
2024-04-26T00:41:45.076Z,39.06
2024-04-26T00:41:55.108Z,39.04
2024-04-26T00:42:05.021Z,38.99
2024-04-26T00:42:14.969Z,39.04
2024-04-26T00:42:24.966Z,39.10
2024-04-26T00:42:44.984Z,38.98
2024-04-26T00:42:54.965Z,38.98
2024-04-26T00:43:04.978Z,39.01
2024-04-26T00:43:15.086Z,38.91
2024-04-26T00:43:24.970Z,38.94
2024-04-26T00:43:35.077Z,39.00
2024-04-26T00:43:54.990Z,39.01
2024-04-26T00:44:04.987Z,38.95
2024-04-26T00:44:15.095Z,39.00
2024-04-26T00:44:25.013Z,39.03
2024-04-26T00:44:35.258Z,38.99
2024-04-26T00:44:55.121Z,39.05
2024-04-26T00:45:05.015Z,39.01
2024-04-26T00:45:14.952Z,39.02
2024-04-26T00:45:24.953Z,39.05
2024-04-26T00:45:34.960Z,38.99
2024-04-26T00:45:44.968Z,39.01
2024-04-26T00:46:04.988Z,38.95
2024-04-26T00:46:15.030Z,38.95
2024-04-26T00:46:24.964Z,38.95
2024-04-26T00:46:35.056Z,38.97
2024-04-26T00:46:44.963Z,38.94
2024-04-26T00:47:15.033Z,39.05
2024-04-26T00:47:25.036Z,38.97
2024-04-26T00:47:35.172Z,38.98
2024-04-26T00:47:45.076Z,38.97
2024-04-26T00:47:55.194Z,38.94
2024-04-26T00:48:05.179Z,38.91
2024-04-26T00:48:15.335Z,38.94
2024-04-26T00:48:35.030Z,39.00
2024-04-26T00:48:45.112Z,38.95
2024-04-26T00:49:05.093Z,38.99
2024-04-26T00:49:15.014Z,39.05
2024-04-26T00:49:24.971Z,39.06
2024-04-26T00:49:34.951Z,39.06
2024-04-26T00:49:44.978Z,38.93
2024-04-26T00:49:55.017Z,38.88
2024-04-26T00:50:15.004Z,38.90
2024-04-26T00:50:24.993Z,38.89
2024-04-26T00:50:35.067Z,38.89
2024-04-26T00:50:44.987Z,38.87
2024-04-26T00:50:55.087Z,38.94
2024-04-26T00:51:05.002Z,38.91
2024-04-26T00:51:34.973Z,38.94
2024-04-26T00:51:44.955Z,38.95
2024-04-26T00:51:55.034Z,38.93
2024-04-26T00:52:04.969Z,38.92
2024-04-26T00:52:14.946Z,39.00
2024-04-26T00:52:24.934Z,39.02
2024-04-26T00:52:35.124Z,39.01
2024-04-26T00:52:54.958Z,38.99
2024-04-26T00:53:04.947Z,38.96
2024-04-26T00:53:14.988Z,39.04
2024-04-26T00:53:24.970Z,38.98
2024-04-26T00:53:34.994Z,38.98
2024-04-26T00:53:44.956Z,38.99
2024-04-26T00:53:55.069Z,38.98
2024-04-26T00:54:14.965Z,38.95
2024-04-26T00:54:24.932Z,38.98
2024-04-26T00:54:35.038Z,38.94
2024-04-26T00:54:44.925Z,38.93
2024-04-26T00:54:54.958Z,38.96
2024-04-26T00:55:04.928Z,38.93
2024-04-26T00:55:24.921Z,38.88
2024-04-26T00:55:34.990Z,38.92
2024-04-26T00:55:44.937Z,38.91
2024-04-26T00:55:54.915Z,38.95
2024-04-26T00:56:04.911Z,39.02
2024-04-26T00:56:14.934Z,38.98
2024-04-26T00:56:24.946Z,39.03
2024-04-26T00:56:45.064Z,38.98
2024-04-26T00:56:54.941Z,39.00
2024-04-26T00:57:04.946Z,39.07
2024-04-26T00:57:14.936Z,39.04
2024-04-26T00:57:24.929Z,39.04
2024-04-26T00:57:34.918Z,39.07
2024-04-26T00:57:54.906Z,39.03
2024-04-26T00:58:04.936Z,38.99
2024-04-26T00:58:14.925Z,39.00
2024-04-26T00:58:24.909Z,39.00
2024-04-26T00:58:34.898Z,38.99
2024-04-26T00:58:44.912Z,39.02
2024-04-26T00:58:54.920Z,38.96
2024-04-26T00:59:04.918Z,39.05
2024-04-26T00:59:24.929Z,39.01
2024-04-26T00:59:34.922Z,39.04
2024-04-26T00:59:44.924Z,39.00
2024-04-26T00:59:55.070Z,39.04
2024-04-26T01:00:04.960Z,39.10
2024-04-26T01:00:14.901Z,39.08
2024-04-26T01:00:24.905Z,39.07
2024-04-26T01:00:34.912Z,39.01
2024-04-26T01:00:54.905Z,38.95
2024-04-26T01:01:05.001Z,38.97
2024-04-26T01:01:14.953Z,38.97
2024-04-26T01:01:24.899Z,38.96
2024-04-26T01:01:34.938Z,39.00
2024-04-26T01:01:55.015Z,39.00
2024-04-26T01:02:14.909Z,39.07
2024-04-26T01:02:24.925Z,39.05
2024-04-26T01:02:34.930Z,39.00
2024-04-26T01:02:44.974Z,39.03
2024-04-26T01:02:55.068Z,38.96
2024-04-26T01:03:04.946Z,39.03
2024-04-26T01:03:14.894Z,39.01
2024-04-26T01:03:34.911Z,39.00
2024-04-26T01:03:44.886Z,39.00
2024-04-26T01:03:54.922Z,39.08
2024-04-26T01:04:04.888Z,39.01
2024-04-26T01:04:24.961Z,39.03
2024-04-26T01:04:44.941Z,38.96
2024-04-26T01:04:54.942Z,38.93
2024-04-26T01:05:04.878Z,38.93
2024-04-26T01:05:14.883Z,38.92
2024-04-26T01:05:24.894Z,38.96
2024-04-26T01:05:34.938Z,38.94
2024-04-26T01:05:55.015Z,38.95
2024-04-26T01:06:04.893Z,38.96
2024-04-26T01:06:15.010Z,38.95
2024-04-26T01:06:24.917Z,38.95
2024-04-26T01:06:34.882Z,38.95
2024-04-26T01:07:04.885Z,39.01
2024-04-26T01:07:14.886Z,39.04
2024-04-26T01:07:24.973Z,39.06
2024-04-26T01:07:34.962Z,39.03
2024-04-26T01:07:44.870Z,39.09
2024-04-26T01:07:55.168Z,39.04
2024-04-26T01:08:14.869Z,39.08
2024-04-26T01:08:24.887Z,39.15
2024-04-26T01:08:34.965Z,39.15
2024-04-26T01:08:45.273Z,39.09
2024-04-26T01:08:54.929Z,39.11
2024-04-26T01:09:04.892Z,39.09
2024-04-26T01:09:24.856Z,39.15
2024-04-26T01:09:34.870Z,39.11
2024-04-26T01:09:44.867Z,39.15
2024-04-26T01:09:54.870Z,39.09
2024-04-26T01:10:04.942Z,39.13
2024-04-26T01:10:14.871Z,39.12
2024-04-26T01:10:24.857Z,39.14
2024-04-26T01:10:34.905Z,39.08
2024-04-26T01:10:44.984Z,39.15
2024-04-26T01:10:55.117Z,39.14
2024-04-26T01:11:14.858Z,39.13
2024-04-26T01:11:25.232Z,39.08
2024-04-26T01:11:34.963Z,39.08
2024-04-26T01:11:54.975Z,39.11
2024-04-26T01:12:04.993Z,39.09
2024-04-26T01:12:14.928Z,39.07
2024-04-26T01:12:34.858Z,39.01
2024-04-26T01:12:44.970Z,39.03
2024-04-26T01:12:54.864Z,39.03
2024-04-26T01:13:04.857Z,39.04
2024-04-26T01:13:14.862Z,39.01
2024-04-26T01:13:24.860Z,39.06
2024-04-26T01:13:34.867Z,39.07
2024-04-26T01:13:54.875Z,39.03
2024-04-26T01:14:05.086Z,39.04
2024-04-26T01:14:24.902Z,39.08
2024-04-26T01:14:34.933Z,39.06
2024-04-26T01:14:44.989Z,39.11
2024-04-26T01:15:04.928Z,39.13
2024-04-26T01:15:14.851Z,39.16
2024-04-26T01:15:24.961Z,39.13
2024-04-26T01:15:34.857Z,39.12
2024-04-26T01:15:44.852Z,39.10
2024-04-26T01:15:54.842Z,39.09
2024-04-26T01:16:04.946Z,39.11
2024-04-26T01:16:14.862Z,39.11
2024-04-26T01:16:34.839Z,39.13
2024-04-26T01:16:54.882Z,39.14
2024-04-26T01:17:04.891Z,39.19
2024-04-26T01:17:14.883Z,39.14
2024-04-26T01:17:24.995Z,39.16
2024-04-26T01:17:34.931Z,39.16
2024-04-26T01:17:44.951Z,39.16
2024-04-26T01:17:55.453Z,39.10
2024-04-26T01:18:05.304Z,39.14
2024-04-26T01:18:15.151Z,39.17
2024-04-26T01:18:34.965Z,39.13
2024-04-26T01:18:44.985Z,39.12
2024-04-26T01:18:55.039Z,39.13
2024-04-26T01:19:04.916Z,39.10
2024-04-26T01:19:15.015Z,39.13
2024-04-26T01:19:34.873Z,39.14
2024-04-26T01:19:45.010Z,39.14
2024-04-26T01:20:04.844Z,39.08
2024-04-26T01:20:14.832Z,39.09
2024-04-26T01:20:24.905Z,39.08
2024-04-26T01:20:35.131Z,39.06
2024-04-26T01:20:44.919Z,39.17
2024-04-26T01:20:55.187Z,39.24
2024-04-26T01:21:04.841Z,39.20
2024-04-26T01:21:24.958Z,39.13
2024-04-26T01:21:34.826Z,39.13
2024-04-26T01:21:44.875Z,39.11
2024-04-26T01:22:04.815Z,39.09
2024-04-26T01:22:14.825Z,39.13
2024-04-26T01:22:34.839Z,39.11
2024-04-26T01:22:44.820Z,39.06
2024-04-26T01:22:54.868Z,39.06
2024-04-26T01:23:04.820Z,39.06
2024-04-26T01:23:14.916Z,39.01
2024-04-26T01:23:24.896Z,38.98
2024-04-26T01:23:35.261Z,38.98
2024-04-26T01:23:44.908Z,39.01
2024-04-26T01:23:54.991Z,39.04
2024-04-26T01:24:14.820Z,39.02
2024-04-26T01:24:34.840Z,39.10
2024-04-26T01:24:44.803Z,39.07
2024-04-26T01:24:54.855Z,39.09
2024-04-26T01:25:04.798Z,39.06
2024-04-26T01:25:14.874Z,39.11
2024-04-26T01:25:24.798Z,39.11
2024-04-26T01:25:44.798Z,39.06
2024-04-26T01:25:54.833Z,39.14
2024-04-26T01:26:04.848Z,39.07
2024-04-26T01:26:14.811Z,39.06
2024-04-26T01:26:24.825Z,39.07
2024-04-26T01:26:34.833Z,39.13
2024-04-26T01:26:44.823Z,39.14
2024-04-26T01:27:04.792Z,39.14
2024-04-26T01:27:14.805Z,39.14
2024-04-26T01:27:24.788Z,39.14
2024-04-26T01:27:34.791Z,39.16
2024-04-26T01:27:45.146Z,39.10
2024-04-26T01:27:54.896Z,39.18
2024-04-26T01:28:04.977Z,39.18
2024-04-26T01:28:14.824Z,39.14
2024-04-26T01:28:24.833Z,39.14
2024-04-26T01:28:44.796Z,39.07
2024-04-26T01:28:54.791Z,39.07
2024-04-26T01:29:04.883Z,39.07
2024-04-26T01:29:14.986Z,39.09
2024-04-26T01:29:24.811Z,39.09
2024-04-26T01:29:44.884Z,39.06
2024-04-26T01:29:54.899Z,39.06
2024-04-26T01:30:14.802Z,39.10
2024-04-26T01:30:24.844Z,39.07
2024-04-26T01:30:34.858Z,39.10
2024-04-26T01:30:44.803Z,39.15
2024-04-26T01:30:54.801Z,39.15
2024-04-26T01:31:04.901Z,39.11
2024-04-26T01:31:14.820Z,39.14
2024-04-26T01:31:24.846Z,39.11
2024-04-26T01:31:34.925Z,39.03
2024-04-26T01:31:44.922Z,39.07
2024-04-26T01:31:55.359Z,39.09
2024-04-26T01:32:14.951Z,39.11
2024-04-26T01:32:24.893Z,39.13
2024-04-26T01:32:34.999Z,39.09
2024-04-26T01:32:44.842Z,39.10
2024-04-26T01:32:54.996Z,39.10
2024-04-26T01:33:04.800Z,39.13
2024-04-26T01:33:15.071Z,39.09
2024-04-26T01:33:34.924Z,39.11
2024-04-26T01:33:44.900Z,39.10
2024-04-26T01:33:54.863Z,39.14
2024-04-26T01:34:04.765Z,39.13
2024-04-26T01:34:15.278Z,39.12
2024-04-26T01:34:24.908Z,39.16
2024-04-26T01:34:34.823Z,39.15
2024-04-26T01:34:44.776Z,39.20
2024-04-26T01:35:04.771Z,39.21
2024-04-26T01:35:14.841Z,39.16
2024-04-26T01:35:24.854Z,39.16
2024-04-26T01:35:34.854Z,39.18
2024-04-26T01:35:44.812Z,39.21
2024-04-26T01:35:54.957Z,39.21
2024-04-26T01:36:05.128Z,39.18
2024-04-26T01:36:25.015Z,39.18
2024-04-26T01:36:34.854Z,39.17
2024-04-26T01:36:44.774Z,39.12
2024-04-26T01:36:54.782Z,39.09
2024-04-26T01:37:04.873Z,39.07
2024-04-26T01:37:34.765Z,39.06
2024-04-26T01:37:44.791Z,39.06
2024-04-26T01:37:54.821Z,39.07
2024-04-26T01:38:05.041Z,39.11
2024-04-26T01:38:14.776Z,39.13
2024-04-26T01:38:25.687Z,39.15
2024-04-26T01:38:44.805Z,39.06
2024-04-26T01:38:54.885Z,39.13
2024-04-26T01:39:04.853Z,39.07
2024-04-26T01:39:14.870Z,39.09
2024-04-26T01:39:24.793Z,39.06
2024-04-26T01:39:34.771Z,39.09
2024-04-26T01:39:54.820Z,39.04
2024-04-26T01:40:04.792Z,39.10
2024-04-26T01:40:14.796Z,39.02
2024-04-26T01:40:24.826Z,39.03
2024-04-26T01:40:34.948Z,39.03
2024-04-26T01:40:44.770Z,39.01
2024-04-26T01:40:54.893Z,39.03
2024-04-26T01:41:14.827Z,39.00
2024-04-26T01:41:24.873Z,39.02
2024-04-26T01:41:34.772Z,38.99
2024-04-26T01:41:44.825Z,39.07
2024-04-26T01:41:54.928Z,39.05
2024-04-26T01:42:04.940Z,39.11
2024-04-26T01:42:24.730Z,39.15
2024-04-26T01:42:34.766Z,39.12
2024-04-26T01:42:44.790Z,39.10
2024-04-26T01:42:54.746Z,39.10
2024-04-26T01:43:04.773Z,39.10
2024-04-26T01:43:14.799Z,39.08
2024-04-26T01:43:24.797Z,39.08
2024-04-26T01:43:34.951Z,39.11
2024-04-26T01:43:54.793Z,39.16
2024-04-26T01:44:04.726Z,39.22
2024-04-26T01:44:15.110Z,39.19
2024-04-26T01:44:24.787Z,39.21
2024-04-26T01:44:34.855Z,39.19
2024-04-26T01:45:04.948Z,39.14
2024-04-26T01:45:14.789Z,39.23
2024-04-26T01:45:24.762Z,39.20
2024-04-26T01:45:34.720Z,39.20
2024-04-26T01:45:44.734Z,39.14
2024-04-26T01:45:54.766Z,39.12
2024-04-26T01:46:14.819Z,39.12
2024-04-26T01:46:24.762Z,39.11
2024-04-26T01:46:34.883Z,39.14
2024-04-26T01:46:44.783Z,39.15
2024-04-26T01:46:54.888Z,39.14
2024-04-26T01:47:04.875Z,39.08
2024-04-26T01:47:14.740Z,39.18
2024-04-26T01:47:24.798Z,39.19
2024-04-26T01:47:45.157Z,39.14
2024-04-26T01:47:54.748Z,39.16
2024-04-26T01:48:04.842Z,39.11
2024-04-26T01:48:15.007Z,39.17
2024-04-26T01:48:24.768Z,39.18
2024-04-26T01:48:34.951Z,39.16
2024-04-26T01:48:54.751Z,39.09
2024-04-26T01:49:04.707Z,39.12
2024-04-26T01:49:14.749Z,39.13
2024-04-26T01:49:24.720Z,39.17
2024-04-26T01:49:34.720Z,39.21
2024-04-26T01:49:44.701Z,39.28
2024-04-26T01:49:54.774Z,39.28
2024-04-26T01:50:14.698Z,39.24
2024-04-26T01:50:24.779Z,39.19
2024-04-26T01:50:34.740Z,39.14
2024-04-26T01:50:44.773Z,39.23
2024-04-26T01:50:54.744Z,39.24
2024-04-26T01:51:04.781Z,39.21
2024-04-26T01:51:14.742Z,39.27
2024-04-26T01:51:34.700Z,39.25
2024-04-26T01:51:44.699Z,39.13
2024-04-26T01:51:54.706Z,39.19
2024-04-26T01:52:04.700Z,39.22
2024-04-26T01:52:14.695Z,39.23
2024-04-26T01:52:34.754Z,39.24
2024-04-26T01:52:44.715Z,39.20
2024-04-26T01:52:54.723Z,39.21
2024-04-26T01:53:14.690Z,39.19
2024-04-26T01:53:24.783Z,39.19
2024-04-26T01:53:34.773Z,39.22
2024-04-26T01:53:44.699Z,39.23
2024-04-26T01:53:54.798Z,39.27
2024-04-26T01:54:04.829Z,39.23
2024-04-26T01:54:15.016Z,39.24
2024-04-26T01:54:34.724Z,39.20
2024-04-26T01:54:44.705Z,39.12
2024-04-26T01:55:04.687Z,39.19
2024-04-26T01:55:14.741Z,39.17
2024-04-26T01:55:24.694Z,39.19
2024-04-26T01:55:44.693Z,39.24
2024-04-26T01:55:54.676Z,39.22
2024-04-26T01:56:04.687Z,39.15
2024-04-26T01:56:14.705Z,39.15
2024-04-26T01:56:24.732Z,39.08
2024-04-26T01:56:34.745Z,39.11
2024-04-26T01:56:54.714Z,39.12
2024-04-26T01:57:04.712Z,39.09
2024-04-26T01:57:14.693Z,39.09
2024-04-26T01:57:34.697Z,39.17
2024-04-26T01:57:44.956Z,39.10
2024-04-26T01:57:54.729Z,39.11
2024-04-26T01:58:14.697Z,39.16
2024-04-26T01:58:24.783Z,39.23
2024-04-26T01:58:34.678Z,39.27
2024-04-26T01:58:44.680Z,39.22
2024-04-26T01:58:54.684Z,39.18
2024-04-26T01:59:04.716Z,39.11
2024-04-26T01:59:14.742Z,39.20
2024-04-26T01:59:25.005Z,39.19
2024-04-26T01:59:34.763Z,39.14
2024-04-26T01:59:44.733Z,39.20
2024-04-26T01:59:54.778Z,39.19
2024-04-26T02:00:14.717Z,39.27
2024-04-26T02:00:24.688Z,39.24
2024-04-26T02:00:35.538Z,39.21
2024-04-26T02:00:44.783Z,39.28
2024-04-26T02:00:54.740Z,39.25
2024-04-26T02:01:04.849Z,39.22
2024-04-26T02:01:14.771Z,39.21
2024-04-26T02:01:24.773Z,39.24
2024-04-26T02:01:44.670Z,39.19
2024-04-26T02:01:54.815Z,39.24
2024-04-26T02:02:04.712Z,39.22
2024-04-26T02:02:14.829Z,39.29
2024-04-26T02:02:34.908Z,39.31
2024-04-26T02:02:54.787Z,39.19
2024-04-26T02:03:04.885Z,39.16
2024-04-26T02:03:14.949Z,39.13
2024-04-26T02:03:25.017Z,39.16
2024-04-26T02:03:34.708Z,39.17
2024-04-26T02:03:44.743Z,39.21
2024-04-26T02:04:04.767Z,39.24
2024-04-26T02:04:14.774Z,39.16
2024-04-26T02:04:24.681Z,39.17
2024-04-26T02:04:34.702Z,39.19
2024-04-26T02:04:45.398Z,39.19
2024-04-26T02:05:04.748Z,39.17
2024-04-26T02:05:24.871Z,39.15
2024-04-26T02:05:34.800Z,39.13
2024-04-26T02:05:44.732Z,39.12
2024-04-26T02:05:54.688Z,39.09
2024-04-26T02:06:04.661Z,39.11
2024-04-26T02:06:14.796Z,39.13
2024-04-26T02:06:24.745Z,39.10
2024-04-26T02:06:44.648Z,39.11
2024-04-26T02:06:54.641Z,39.13
2024-04-26T02:07:04.683Z,39.18
2024-04-26T02:07:14.720Z,39.18
2024-04-26T02:07:34.920Z,39.13
2024-04-26T02:07:44.833Z,39.11
2024-04-26T02:08:04.647Z,39.13
2024-04-26T02:08:14.702Z,39.18
2024-04-26T02:08:24.707Z,39.17
2024-04-26T02:08:35.425Z,39.17
2024-04-26T02:08:44.794Z,39.24
2024-04-26T02:08:54.665Z,39.24
2024-04-26T02:09:04.735Z,39.24
2024-04-26T02:09:24.672Z,39.20
2024-04-26T02:09:34.648Z,39.14
2024-04-26T02:09:44.778Z,39.18
2024-04-26T02:10:04.706Z,39.15
2024-04-26T02:10:14.620Z,39.24
2024-04-26T02:10:34.717Z,39.24
2024-04-26T02:10:44.708Z,39.28
2024-04-26T02:10:54.737Z,39.34
2024-04-26T02:11:04.729Z,39.34
2024-04-26T02:11:14.925Z,39.29
2024-04-26T02:11:25.550Z,39.25
2024-04-26T02:11:45.005Z,39.27
2024-04-26T02:11:54.688Z,39.18
2024-04-26T02:12:04.860Z,39.15
2024-04-26T02:12:14.764Z,39.13
2024-04-26T02:12:34.618Z,39.21
2024-04-26T02:12:54.609Z,39.25
2024-04-26T02:13:04.787Z,39.24
2024-04-26T02:13:14.704Z,39.28
2024-04-26T02:13:24.617Z,39.24
2024-04-26T02:13:34.605Z,39.21
2024-04-26T02:13:44.746Z,39.22
2024-04-26T02:14:04.633Z,39.17
2024-04-26T02:14:14.767Z,39.07
2024-04-26T02:14:24.789Z,39.17
2024-04-26T02:14:34.727Z,39.11
2024-04-26T02:14:54.677Z,39.21
2024-04-26T02:15:15.440Z,39.17
2024-04-26T02:15:24.696Z,39.25
2024-04-26T02:15:34.596Z,39.27
2024-04-26T02:15:44.640Z,39.18
2024-04-26T02:15:54.611Z,39.17
2024-04-26T02:16:04.688Z,39.14
2024-04-26T02:16:24.650Z,39.24
2024-04-26T02:16:34.690Z,39.25
2024-04-26T02:16:44.772Z,39.25
2024-04-26T02:16:54.608Z,39.26
2024-04-26T02:17:04.703Z,39.25
2024-04-26T02:17:24.725Z,39.21
2024-04-26T02:17:34.870Z,39.26
2024-04-26T02:17:54.688Z,39.27
2024-04-26T02:18:05.017Z,39.30
2024-04-26T02:18:14.721Z,39.33
2024-04-26T02:18:24.657Z,39.32
2024-04-26T02:18:34.666Z,39.27
2024-04-26T02:18:44.727Z,39.24
2024-04-26T02:18:54.785Z,39.28
2024-04-26T02:19:14.594Z,39.31
2024-04-26T02:19:24.583Z,39.33
2024-04-26T02:19:34.866Z,39.33
2024-04-26T02:19:44.633Z,39.36
2024-04-26T02:20:04.589Z,39.27
2024-04-26T02:20:24.664Z,39.38
2024-04-26T02:20:34.621Z,39.33
2024-04-26T02:20:44.641Z,39.32
2024-04-26T02:20:54.661Z,39.32
2024-04-26T02:21:04.743Z,39.17
2024-04-26T02:21:14.630Z,39.19
2024-04-26T02:21:24.590Z,39.16
2024-04-26T02:21:44.608Z,39.22
2024-04-26T02:21:54.601Z,39.27
2024-04-26T02:22:04.587Z,39.29
2024-04-26T02:22:14.805Z,39.25
2024-04-26T02:22:24.636Z,39.22
2024-04-26T02:22:54.782Z,39.22
2024-04-26T02:23:04.594Z,39.25
2024-04-26T02:23:14.626Z,39.27
2024-04-26T02:23:24.673Z,39.22
2024-04-26T02:23:34.909Z,39.26
2024-04-26T02:23:44.607Z,39.22
2024-04-26T02:24:04.682Z,39.20
2024-04-26T02:24:14.673Z,39.23
2024-04-26T02:24:24.849Z,39.23
2024-04-26T02:24:34.667Z,39.32
2024-04-26T02:24:54.897Z,39.28
2024-04-26T02:25:14.693Z,39.37
2024-04-26T02:25:24.646Z,39.34
2024-04-26T02:25:34.679Z,39.39
2024-04-26T02:25:44.560Z,39.30
2024-04-26T02:25:54.907Z,39.32
2024-04-26T02:26:04.599Z,39.32
2024-04-26T02:26:14.744Z,39.35
2024-04-26T02:26:34.591Z,39.34
2024-04-26T02:26:44.594Z,39.34
2024-04-26T02:26:54.642Z,39.29
2024-04-26T02:27:04.771Z,39.30
2024-04-26T02:27:24.708Z,39.29
2024-04-26T02:27:34.598Z,39.32
2024-04-26T02:27:54.885Z,39.27
2024-04-26T02:28:04.837Z,39.26
2024-04-26T02:28:14.588Z,39.27
2024-04-26T02:28:24.580Z,39.31
2024-04-26T02:28:34.657Z,39.29
2024-04-26T02:28:44.560Z,39.29
2024-04-26T02:29:04.556Z,39.25
2024-04-26T02:29:14.551Z,39.27
2024-04-26T02:29:24.631Z,39.23
2024-04-26T02:29:34.649Z,39.26
2024-04-26T02:29:44.596Z,39.23
2024-04-26T02:30:04.807Z,39.23
2024-04-26T02:30:14.673Z,39.25
2024-04-26T02:30:34.630Z,39.25
2024-04-26T02:30:44.555Z,39.22
2024-04-26T02:30:54.572Z,39.22
2024-04-26T02:31:04.564Z,39.17
2024-04-26T02:31:14.564Z,39.20
2024-04-26T02:31:24.621Z,39.21
2024-04-26T02:31:34.820Z,39.19
2024-04-26T02:31:44.667Z,39.19
2024-04-26T02:31:54.692Z,39.18
2024-04-26T02:32:04.691Z,39.20
2024-04-26T02:32:24.669Z,39.29
2024-04-26T02:32:34.671Z,39.25
2024-04-26T02:32:44.780Z,39.18
2024-04-26T02:32:54.645Z,39.18
2024-04-26T02:33:04.617Z,39.14
2024-04-26T02:33:14.822Z,39.20
2024-04-26T02:33:24.811Z,39.16
2024-04-26T02:33:34.648Z,39.16
2024-04-26T02:33:44.952Z,39.27
2024-04-26T02:33:54.644Z,39.19
2024-04-26T02:34:04.910Z,39.23
2024-04-26T02:34:14.979Z,39.24
2024-04-26T02:34:34.584Z,39.27
2024-04-26T02:34:44.526Z,39.23
2024-04-26T02:34:54.614Z,39.27
2024-04-26T02:35:14.774Z,39.30
2024-04-26T02:35:24.772Z,39.27
2024-04-26T02:35:34.684Z,39.26